createdAt,value
2023-03-29T00:01:59.388Z,101684.65
2023-03-29T00:04:29.609Z,101679.55
2023-03-29T00:07:04.181Z,101677.77
2023-03-29T00:09:33.571Z,101675.16
2023-03-29T00:12:03.750Z,101665.14
2023-03-29T00:14:33.631Z,101661.02
2023-03-29T00:17:03.756Z,101649.34
2023-03-29T00:19:36.731Z,101645.88
2023-03-29T00:22:06.614Z,101643.58
2023-03-29T00:24:36.420Z,101642.96
2023-03-29T00:27:07.255Z,101640.91
2023-03-29T00:29:36.787Z,101635.92
2023-03-29T00:32:07.362Z,101634.14
2023-03-29T00:34:37.108Z,101631.48
2023-03-29T00:37:09.106Z,101633.02
2023-03-29T00:39:40.906Z,101631.95
2023-03-29T00:42:16.277Z,101630.00
2023-03-29T00:45:08.059Z,101629.85
2023-03-29T00:47:43.641Z,101628.81
2023-03-29T00:50:22.313Z,101623.38
2023-03-29T00:53:04.670Z,101618.61
2023-03-29T00:55:44.513Z,101615.67
2023-03-29T00:58:21.246Z,101609.52
2023-03-29T01:01:02.139Z,101611.89
2023-03-29T01:04:00.368Z,101606.36
2023-03-29T01:06:35.727Z,101601.23
2023-03-29T01:09:12.601Z,101597.98
2023-03-29T01:11:53.923Z,101595.78
2023-03-29T01:14:35.189Z,101588.27
2023-03-29T01:17:06.615Z,101587.63
2023-03-29T01:19:47.751Z,101581.05
2023-03-29T01:23:07.443Z,101577.55
2023-03-29T01:26:09.815Z,101573.33
2023-03-29T01:28:52.304Z,101562.66
2023-03-29T01:31:33.473Z,101563.77
2023-03-29T01:34:40.878Z,101557.52
2023-03-29T01:37:41.337Z,101550.00
2023-03-29T01:40:12.152Z,101548.46
2023-03-29T01:43:32.641Z,101542.99
2023-03-29T01:46:24.273Z,101541.55
2023-03-29T01:49:04.028Z,101537.16
2023-03-29T01:51:48.389Z,101535.05
2023-03-29T01:54:40.958Z,101528.13
2023-03-29T01:57:14.392Z,101523.64
2023-03-29T01:59:47.500Z,101521.34
2023-03-29T02:02:21.605Z,101519.73
2023-03-29T02:04:56.071Z,101516.34
2023-03-29T02:07:31.154Z,101515.23
2023-03-29T02:10:02.124Z,101513.84
2023-03-29T02:12:32.993Z,101509.57
2023-03-29T02:15:04.619Z,101507.71
2023-03-29T02:17:31.740Z,101505.06
2023-03-29T02:20:40.645Z,101504.17
2023-03-29T02:23:35.103Z,101501.40
2023-03-29T02:26:06.750Z,101496.99
2023-03-29T02:28:37.259Z,101492.55
2023-03-29T02:31:59.229Z,101489.00
2023-03-29T02:34:40.100Z,101487.30
2023-03-29T02:37:17.885Z,101472.61
2023-03-29T02:39:52.370Z,101473.11
2023-03-29T02:42:24.571Z,101471.74
2023-03-29T02:45:00.577Z,101470.20
2023-03-29T02:47:41.703Z,101466.16
2023-03-29T02:50:12.146Z,101465.93
2023-03-29T02:52:53.986Z,101461.23
2023-03-29T02:55:31.266Z,101458.50
2023-03-29T02:58:08.478Z,101453.60
2023-03-29T03:00:44.904Z,101451.86
2023-03-29T03:03:15.458Z,101443.77
2023-03-29T03:05:45.381Z,101444.86
2023-03-29T03:08:15.419Z,101441.48
2023-03-29T03:10:46.120Z,101437.98
2023-03-29T03:13:15.733Z,101431.91
2023-03-29T03:15:49.135Z,101436.44
2023-03-29T03:18:18.886Z,101435.48
2023-03-29T03:20:59.416Z,101430.35
2023-03-29T03:23:29.499Z,101429.56
2023-03-29T03:25:59.433Z,101427.83
2023-03-29T03:28:29.236Z,101428.05
2023-03-29T03:30:59.369Z,101421.67
2023-03-29T03:33:29.307Z,101417.63
2023-03-29T03:36:02.940Z,101420.15
2023-03-29T03:38:33.621Z,101418.29
2023-03-29T03:41:05.761Z,101417.17
2023-03-29T03:43:36.529Z,101413.00
2023-03-29T03:46:08.571Z,101408.63
2023-03-29T03:48:38.344Z,101409.05
2023-03-29T03:51:08.622Z,101407.45
2023-03-29T03:53:39.738Z,101410.06
2023-03-29T03:56:09.645Z,101406.76
2023-03-29T03:58:39.688Z,101406.73
2023-03-29T04:01:09.975Z,101404.66
2023-03-29T04:03:39.856Z,101405.14
2023-03-29T04:06:09.787Z,101403.80
2023-03-29T04:08:40.508Z,101402.98
2023-03-29T04:11:08.099Z,101400.73
2023-03-29T04:13:37.145Z,101401.94
2023-03-29T04:16:07.231Z,101398.84
2023-03-29T04:18:36.331Z,101397.59
2023-03-29T04:21:05.349Z,101398.05
2023-03-29T04:23:33.166Z,101395.69
2023-03-29T04:26:01.734Z,101400.40
2023-03-29T04:28:30.312Z,101397.30
2023-03-29T04:30:58.407Z,101395.16
2023-03-29T04:33:26.931Z,101393.31
2023-03-29T04:35:55.252Z,101396.01
2023-03-29T04:38:23.749Z,101396.52
2023-03-29T04:40:52.264Z,101393.07
2023-03-29T04:43:20.585Z,101387.56
2023-03-29T04:45:49.156Z,101388.45
2023-03-29T04:48:17.773Z,101391.99
2023-03-29T04:50:47.508Z,101387.08
2023-03-29T04:53:17.299Z,101387.89
2023-03-29T04:55:48.410Z,101386.40
2023-03-29T04:58:21.404Z,101386.11
2023-03-29T05:00:55.935Z,101385.88
2023-03-29T05:03:27.176Z,101383.88
2023-03-29T05:06:07.402Z,101375.77
2023-03-29T05:08:39.666Z,101369.98
2023-03-29T05:11:11.541Z,101369.43
2023-03-29T05:13:42.482Z,101368.77
2023-03-29T05:16:12.711Z,101366.61
2023-03-29T05:18:42.586Z,101365.11
2023-03-29T05:21:12.390Z,101357.92
2023-03-29T05:23:42.106Z,101352.05
2023-03-29T05:26:14.658Z,101356.52
2023-03-29T05:28:44.647Z,101355.36
2023-03-29T05:31:16.893Z,101355.82
2023-03-29T05:33:52.003Z,101353.31
2023-03-29T05:36:22.008Z,101349.68
2023-03-29T05:38:52.147Z,101344.36
2023-03-29T05:41:23.825Z,101343.92
2023-03-29T05:43:53.343Z,101343.92
2023-03-29T05:46:21.860Z,101343.66
2023-03-29T05:48:50.233Z,101343.45
2023-03-29T05:51:24.389Z,101344.25
2023-03-29T05:53:54.214Z,101342.76
2023-03-29T05:56:24.310Z,101349.88
2023-03-29T05:58:56.953Z,101351.50
2023-03-29T06:01:26.714Z,101346.52
2023-03-29T06:03:57.402Z,101346.98
2023-03-29T06:06:26.948Z,101345.98
2023-03-29T06:08:56.664Z,101348.75
2023-03-29T06:11:26.489Z,101345.66
2023-03-29T06:13:56.223Z,101344.91
2023-03-29T06:16:26.235Z,101349.84
2023-03-29T06:18:56.502Z,101346.91
2023-03-29T06:21:27.258Z,101342.95
2023-03-29T06:23:57.165Z,101339.34
2023-03-29T06:26:28.086Z,101338.73
2023-03-29T06:28:58.247Z,101337.23
2023-03-29T06:31:25.245Z,101334.98
2023-03-29T06:33:52.791Z,101333.39
2023-03-29T06:36:23.800Z,101331.31
2023-03-29T06:38:52.785Z,101330.27
2023-03-29T06:41:23.785Z,101330.98
2023-03-29T06:43:53.631Z,101329.98
2023-03-29T06:46:23.817Z,101329.55
2023-03-29T06:48:53.585Z,101332.17
2023-03-29T06:51:23.586Z,101327.41
2023-03-29T06:53:53.418Z,101322.61
2023-03-29T06:56:23.863Z,101322.19
2023-03-29T06:58:53.634Z,101320.65
2023-03-29T07:01:24.424Z,101320.33
2023-03-29T07:03:54.420Z,101318.14
2023-03-29T07:06:23.839Z,101316.06
2023-03-29T07:08:53.607Z,101314.95
2023-03-29T07:11:23.357Z,101311.39
2023-03-29T07:13:53.118Z,101316.38
2023-03-29T07:16:23.139Z,101320.20
2023-03-29T07:18:53.514Z,101316.77
2023-03-29T07:21:23.292Z,101318.73
2023-03-29T07:23:54.074Z,101318.90
2023-03-29T07:26:28.594Z,101320.77
2023-03-29T07:28:56.987Z,101319.00
2023-03-29T07:31:24.625Z,101326.27
2023-03-29T07:33:54.244Z,101324.27
2023-03-29T07:36:22.373Z,101324.08
2023-03-29T07:38:51.052Z,101318.60
2023-03-29T07:41:19.202Z,101319.02
2023-03-29T07:43:47.756Z,101316.59
2023-03-29T07:46:17.094Z,101308.96
2023-03-29T07:48:44.433Z,101311.27
2023-03-29T07:51:13.012Z,101310.35
2023-03-29T07:53:41.333Z,101309.38
2023-03-29T07:56:09.845Z,101306.07
2023-03-29T07:58:38.149Z,101301.00
2023-03-29T08:01:08.404Z,101296.52
2023-03-29T08:03:38.563Z,101300.95
2023-03-29T08:06:07.404Z,101298.95
2023-03-29T08:08:35.034Z,101295.73
2023-03-29T08:11:03.772Z,101296.88
2023-03-29T08:13:32.246Z,101297.20
2023-03-29T08:16:00.229Z,101294.40
2023-03-29T08:18:28.650Z,101297.19
2023-03-29T08:20:57.080Z,101287.98
2023-03-29T08:23:25.819Z,101285.45
2023-03-29T08:25:54.406Z,101290.98
2023-03-29T08:28:22.348Z,101294.20
2023-03-29T08:30:51.043Z,101287.66
2023-03-29T08:33:19.407Z,101280.77
2023-03-29T08:35:48.369Z,101272.91
2023-03-29T08:38:16.319Z,101265.13
2023-03-29T08:40:49.565Z,101262.95
2023-03-29T08:43:48.400Z,101258.60
2023-03-29T08:46:36.435Z,101254.89
2023-03-29T08:49:09.370Z,101253.48
2023-03-29T08:51:49.690Z,101254.73
2023-03-29T08:54:27.022Z,101252.04
2023-03-29T08:57:12.032Z,101259.55
2023-03-29T08:59:44.316Z,101251.60
2023-03-29T09:02:33.616Z,101248.16
2023-03-29T09:05:27.078Z,101245.45
2023-03-29T09:07:54.655Z,101238.95
2023-03-29T09:10:42.501Z,101238.80
2023-03-29T09:14:06.853Z,101239.45
2023-03-29T09:16:43.521Z,101237.09
2023-03-29T09:19:31.962Z,101235.38
2023-03-29T09:22:29.764Z,101230.59
2023-03-29T09:25:14.738Z,101232.29
2023-03-29T09:28:06.039Z,101223.04
2023-03-29T09:30:42.746Z,101224.55
2023-03-29T09:33:28.338Z,101227.86
2023-03-29T09:36:34.178Z,101230.47
2023-03-29T09:39:05.699Z,101222.30
2023-03-29T09:41:50.626Z,101213.95
2023-03-29T09:44:37.707Z,101216.77
2023-03-29T09:47:31.924Z,101211.05
2023-03-29T09:50:27.337Z,101214.02
2023-03-29T09:53:01.379Z,101210.69
2023-03-29T09:55:34.103Z,101205.78
2023-03-29T09:58:27.654Z,101200.71
2023-03-29T10:01:01.806Z,101198.13
2023-03-29T10:03:34.879Z,101198.11
2023-03-29T10:06:11.095Z,101199.00
2023-03-29T10:08:47.678Z,101200.02
2023-03-29T10:11:23.341Z,101196.95
2023-03-29T10:13:55.056Z,101189.83
2023-03-29T10:16:33.552Z,101187.33
2023-03-29T10:19:28.463Z,101185.70
2023-03-29T10:22:05.377Z,101181.72
2023-03-29T10:24:32.642Z,101174.02
2023-03-29T10:27:06.854Z,101170.26
2023-03-29T10:29:41.193Z,101168.48
2023-03-29T10:32:36.069Z,101167.06
2023-03-29T10:35:33.372Z,101163.21
2023-03-29T10:38:09.986Z,101165.93
2023-03-29T10:40:48.064Z,101163.65
2023-03-29T10:43:17.701Z,101164.25
2023-03-29T10:45:56.835Z,101152.70
2023-03-29T10:48:31.859Z,101148.79
2023-03-29T10:51:05.595Z,101152.77
2023-03-29T10:53:37.860Z,101151.92
2023-03-29T10:56:43.305Z,101149.40
2023-03-29T10:59:42.544Z,101141.81
2023-03-29T11:02:15.203Z,101140.19
2023-03-29T11:05:15.784Z,101135.79
2023-03-29T11:08:01.595Z,101140.43
2023-03-29T11:11:06.177Z,101140.96
2023-03-29T11:14:01.561Z,101133.23
2023-03-29T11:17:09.265Z,101128.33
2023-03-29T11:20:19.133Z,101129.48
2023-03-29T11:23:08.028Z,101128.08
2023-03-29T11:25:49.216Z,101134.19
2023-03-29T11:28:45.583Z,101130.62
2023-03-29T11:31:41.596Z,101133.77
2023-03-29T11:34:41.165Z,101122.39
2023-03-29T11:37:19.497Z,101115.25
2023-03-29T11:40:26.666Z,101115.86
2023-03-29T11:43:02.314Z,101116.63
2023-03-29T11:46:00.934Z,101112.63
2023-03-29T11:48:47.575Z,101108.30
2023-03-29T11:51:32.224Z,101105.36
2023-03-29T11:54:28.786Z,101111.73
2023-03-29T11:57:13.367Z,101113.45
2023-03-29T12:00:21.272Z,101105.35
2023-03-29T12:03:07.536Z,101102.77
2023-03-29T12:05:59.075Z,101101.08
2023-03-29T12:08:49.742Z,101100.11
2023-03-29T12:11:31.187Z,101098.83
2023-03-29T12:14:07.203Z,101099.48
2023-03-29T12:16:48.984Z,101094.08
2023-03-29T12:19:41.011Z,101083.91
2023-03-29T12:22:12.576Z,101091.66
2023-03-29T12:24:47.058Z,101093.59
2023-03-29T12:27:48.187Z,101088.60
2023-03-29T12:30:50.191Z,101082.96
2023-03-29T12:33:43.534Z,101082.45
2023-03-29T12:36:57.321Z,101080.15
2023-03-29T12:39:30.586Z,101083.85
2023-03-29T12:42:27.117Z,101085.77
2023-03-29T12:45:01.729Z,101079.66
2023-03-29T12:47:43.146Z,101072.94
2023-03-29T12:50:36.916Z,101073.04
2023-03-29T12:53:26.151Z,101060.58
2023-03-29T12:56:11.664Z,101064.14
2023-03-29T12:58:50.285Z,101066.66
2023-03-29T13:01:29.559Z,101058.41
2023-03-29T13:04:18.435Z,101049.86
2023-03-29T13:07:03.752Z,101041.91
2023-03-29T13:09:48.562Z,101039.41
2023-03-29T13:12:34.708Z,101037.11
2023-03-29T13:15:14.351Z,101032.54
2023-03-29T13:18:55.535Z,101032.27
2023-03-29T13:21:53.860Z,101041.92
2023-03-29T13:24:42.341Z,101049.54
2023-03-29T13:27:34.234Z,101047.09
2023-03-29T13:30:43.746Z,101037.45
2023-03-29T13:33:57.235Z,101038.76
2023-03-29T13:36:44.838Z,101041.44
2023-03-29T13:39:22.545Z,101044.23
2023-03-29T13:42:09.296Z,101037.66
2023-03-29T13:44:44.819Z,101034.56
2023-03-29T13:47:33.213Z,101034.61
2023-03-29T13:50:18.866Z,101030.02
2023-03-29T13:53:01.242Z,101028.98
2023-03-29T13:55:44.360Z,101030.46
2023-03-29T13:58:32.416Z,101028.70
2023-03-29T14:01:19.415Z,101027.93
2023-03-29T14:03:52.293Z,101028.23
2023-03-29T14:06:31.974Z,101030.31
2023-03-29T14:09:08.645Z,101029.02
2023-03-29T14:11:38.618Z,101022.11
2023-03-29T14:14:11.381Z,101024.20
2023-03-29T14:16:42.238Z,101030.31
2023-03-29T14:19:38.906Z,101025.45
2023-03-29T14:22:17.688Z,101029.98
2023-03-29T14:24:56.742Z,101030.45
2023-03-29T14:27:31.937Z,101026.59
2023-03-29T14:30:01.990Z,101025.52
2023-03-29T14:32:32.412Z,101021.20
2023-03-29T14:35:00.587Z,101017.63
2023-03-29T14:37:31.054Z,101016.52
2023-03-29T14:40:01.458Z,101015.11
2023-03-29T14:42:31.173Z,101010.84
2023-03-29T14:45:09.209Z,101011.37
2023-03-29T14:47:36.876Z,101012.77
2023-03-29T14:50:04.991Z,101006.50
2023-03-29T14:52:35.210Z,101008.15
2023-03-29T14:55:06.156Z,101005.58
2023-03-29T14:57:37.872Z,101009.11
2023-03-29T15:00:30.686Z,101008.39
2023-03-29T15:03:02.774Z,101007.70
2023-03-29T15:05:37.678Z,101008.66
2023-03-29T15:08:14.789Z,101007.24
2023-03-29T15:10:45.214Z,101007.68
2023-03-29T15:13:24.450Z,101005.02
2023-03-29T15:16:01.669Z,101004.89
2023-03-29T15:18:41.407Z,101001.59
2023-03-29T15:23:57.350Z,100990.65
2023-03-29T15:26:38.219Z,100989.52
2023-03-29T15:29:17.656Z,100986.61
2023-03-29T15:31:56.758Z,100978.04
2023-03-29T15:34:31.325Z,100973.04
2023-03-29T15:37:02.481Z,100971.41
2023-03-29T15:39:32.513Z,100963.85
2023-03-29T15:42:02.361Z,100954.96
2023-03-29T15:44:33.939Z,100949.31
2023-03-29T15:47:09.278Z,100948.31
2023-03-29T15:49:39.199Z,100947.69
2023-03-29T15:52:07.022Z,100945.80
2023-03-29T15:54:37.120Z,100947.80
2023-03-29T15:57:13.504Z,100939.55
2023-03-29T15:59:44.496Z,100935.79
2023-03-29T16:02:16.676Z,100937.52
2023-03-29T16:04:46.625Z,100927.66
2023-03-29T16:07:19.037Z,100928.42
2023-03-29T16:09:48.965Z,100932.46
2023-03-29T16:12:18.916Z,100928.10
2023-03-29T16:14:48.740Z,100928.16
2023-03-29T16:17:18.638Z,100924.07
2023-03-29T16:19:48.506Z,100924.63
2023-03-29T16:22:18.425Z,100925.99
2023-03-29T16:24:48.332Z,100923.67
2023-03-29T16:27:18.826Z,100918.02
2023-03-29T16:29:48.584Z,100922.55
2023-03-29T16:32:18.372Z,100927.25
2023-03-29T16:34:48.610Z,100933.23
2023-03-29T16:37:18.412Z,100931.92
2023-03-29T16:39:48.450Z,100934.17
2023-03-29T16:42:18.151Z,100937.57
2023-03-29T16:44:46.863Z,100930.48
2023-03-29T16:47:14.401Z,100931.27
2023-03-29T16:49:45.835Z,100922.29
2023-03-29T16:52:16.141Z,100922.77
2023-03-29T16:54:46.876Z,100922.38
2023-03-29T16:57:16.684Z,100923.91
2023-03-29T16:59:47.687Z,100922.98
2023-03-29T17:02:17.796Z,100920.41
2023-03-29T17:04:47.723Z,100920.08
2023-03-29T17:07:17.611Z,100915.17
2023-03-29T17:09:48.416Z,100914.91
2023-03-29T17:12:19.200Z,100916.02
2023-03-29T17:14:49.742Z,100918.69
2023-03-29T17:17:17.547Z,100915.27
2023-03-29T17:19:44.559Z,100912.36
2023-03-29T17:22:11.936Z,100915.96
2023-03-29T17:24:40.510Z,100916.60
2023-03-29T17:27:08.853Z,100916.24
2023-03-29T17:29:37.343Z,100920.93
2023-03-29T17:32:06.032Z,100917.75
2023-03-29T17:34:34.247Z,100919.67
2023-03-29T17:37:03.816Z,100915.80
2023-03-29T17:39:32.151Z,100912.50
2023-03-29T17:41:59.656Z,100910.02
2023-03-29T17:44:27.888Z,100906.44
2023-03-29T17:46:56.554Z,100905.51
2023-03-29T17:49:24.680Z,100906.03
2023-03-29T17:51:53.227Z,100907.95
2023-03-29T17:54:21.809Z,100909.84
2023-03-29T17:56:50.604Z,100906.98
2023-03-29T17:59:18.618Z,100907.33
2023-03-29T18:01:46.930Z,100906.25
2023-03-29T18:04:15.364Z,100908.52
2023-03-29T18:06:44.064Z,100910.55
2023-03-29T18:09:13.425Z,100912.98
2023-03-29T18:11:40.889Z,100911.27
2023-03-29T18:14:08.967Z,100913.02
2023-03-29T18:16:37.497Z,100914.01
2023-03-29T18:19:06.367Z,100918.72
2023-03-29T18:21:34.466Z,100916.22
2023-03-29T18:24:03.252Z,100918.57
2023-03-29T18:26:32.940Z,100921.15
2023-03-29T18:29:02.900Z,100919.36
2023-03-29T18:31:31.000Z,100920.52
2023-03-29T18:33:59.558Z,100923.42
2023-03-29T18:36:29.150Z,100923.36
2023-03-29T18:39:02.389Z,100921.04
2023-03-29T18:41:34.835Z,100922.77
2023-03-29T18:44:07.523Z,100925.73
2023-03-29T18:46:37.405Z,100921.91
2023-03-29T18:49:07.774Z,100923.34
2023-03-29T18:51:37.591Z,100921.38
2023-03-29T18:54:06.076Z,100925.52
2023-03-29T18:56:33.409Z,100925.02
2023-03-29T18:59:06.897Z,100929.89
2023-03-29T19:01:35.938Z,100928.42
2023-03-29T19:04:06.241Z,100927.15
2023-03-29T19:06:35.929Z,100927.52
2023-03-29T19:09:05.855Z,100923.13
2023-03-29T19:11:36.197Z,100921.69
2023-03-29T19:14:08.891Z,100917.66
2023-03-29T19:16:39.305Z,100910.48
2023-03-29T19:19:08.295Z,100907.52
2023-03-29T19:21:38.577Z,100909.64
2023-03-29T19:24:08.558Z,100905.63
2023-03-29T19:26:38.407Z,100907.52
2023-03-29T19:29:08.535Z,100911.90
2023-03-29T19:31:38.506Z,100906.34
2023-03-29T19:34:11.465Z,100904.25
2023-03-29T19:36:40.105Z,100901.80
2023-03-29T19:39:09.938Z,100900.89
2023-03-29T19:41:41.889Z,100897.18
2023-03-29T19:44:10.211Z,100893.41
2023-03-29T19:46:40.787Z,100886.01
2023-03-29T19:49:13.470Z,100885.25
2023-03-29T19:51:43.135Z,100893.81
2023-03-29T19:54:13.810Z,100887.77
2023-03-29T19:56:44.005Z,100884.15
2023-03-29T19:59:17.597Z,100880.11
2023-03-29T20:01:51.172Z,100878.53
2023-03-29T20:04:25.412Z,100875.52
2023-03-29T20:06:57.689Z,100871.13
2023-03-29T20:09:27.516Z,100865.70
2023-03-29T20:11:57.335Z,100862.91
2023-03-29T20:14:27.278Z,100863.23
2023-03-29T20:16:57.147Z,100866.36
2023-03-29T20:19:26.949Z,100866.39
2023-03-29T20:21:57.728Z,100867.45
2023-03-29T20:24:27.576Z,100863.95
2023-03-29T20:26:57.523Z,100864.84
2023-03-29T20:29:27.621Z,100863.42
2023-03-29T20:31:58.966Z,100859.94
2023-03-29T20:34:28.982Z,100862.52
2023-03-29T20:37:00.897Z,100854.59
2023-03-29T20:39:31.462Z,100848.48
2023-03-29T20:42:01.305Z,100845.65
2023-03-29T20:44:32.408Z,100838.28
2023-03-29T20:47:05.214Z,100836.84
2023-03-29T20:49:39.662Z,100835.26
2023-03-29T20:52:16.731Z,100833.49
2023-03-29T20:54:48.570Z,100829.44
2023-03-29T20:57:21.126Z,100825.73
2023-03-29T20:59:50.427Z,100825.92
2023-03-29T21:02:22.781Z,100818.55
2023-03-29T21:04:54.093Z,100820.23
2023-03-29T21:07:23.947Z,100819.97
2023-03-29T21:09:54.073Z,100818.56
2023-03-29T21:12:23.879Z,100817.98
2023-03-29T21:14:54.081Z,100814.23
2023-03-29T21:17:24.031Z,100813.72
2023-03-29T21:19:54.899Z,100813.55
2023-03-29T21:22:25.311Z,100816.14
2023-03-29T21:24:55.076Z,100813.70
2023-03-29T21:27:25.028Z,100811.11
2023-03-29T21:29:54.811Z,100808.30
2023-03-29T21:32:24.654Z,100806.02
2023-03-29T21:34:54.517Z,100803.39
2023-03-29T21:37:25.572Z,100800.14
2023-03-29T21:39:55.315Z,100792.58
2023-03-29T21:42:25.597Z,100783.81
2023-03-29T21:44:55.642Z,100782.29
2023-03-29T21:47:25.563Z,100770.70
2023-03-29T21:49:55.448Z,100767.94
2023-03-29T21:52:25.473Z,100768.70
2023-03-29T21:54:55.392Z,100768.20
2023-03-29T21:57:25.273Z,100772.75
2023-03-29T21:59:55.913Z,100766.44
2023-03-29T22:02:26.208Z,100764.87
2023-03-29T22:04:56.715Z,100759.27
2023-03-29T22:07:26.558Z,100757.50
2023-03-29T22:09:58.658Z,100756.96
2023-03-29T22:12:28.411Z,100751.21
2023-03-29T22:14:58.197Z,100755.39
2023-03-29T22:17:28.509Z,100753.98
2023-03-29T22:19:58.452Z,100749.26
2023-03-29T22:22:28.931Z,100744.51
2023-03-29T22:24:58.687Z,100748.70
2023-03-29T22:27:28.475Z,100748.52
2023-03-29T22:29:58.731Z,100747.79
2023-03-29T22:32:32.849Z,100743.23
2023-03-29T22:35:03.352Z,100746.90
2023-03-29T22:37:33.372Z,100743.34
2023-03-29T22:40:01.691Z,100744.36
2023-03-29T22:42:29.872Z,100744.54
2023-03-29T22:44:58.458Z,100741.91
2023-03-29T22:47:26.809Z,100741.19
2023-03-29T22:49:55.379Z,100739.75
2023-03-29T22:52:23.621Z,100739.42
2023-03-29T22:54:52.069Z,100737.97
2023-03-29T22:57:20.542Z,100735.30
2023-03-29T22:59:48.865Z,100730.02
2023-03-29T23:02:17.329Z,100724.52
2023-03-29T23:04:46.340Z,100723.11
2023-03-29T23:07:14.259Z,100718.35
2023-03-29T23:09:42.560Z,100719.31
2023-03-29T23:12:14.316Z,100713.84
2023-03-29T23:14:42.897Z,100707.13
2023-03-29T23:17:11.094Z,100704.14
2023-03-29T23:19:39.172Z,100698.99
2023-03-29T23:22:08.612Z,100701.58
2023-03-29T23:24:36.026Z,100696.14
2023-03-29T23:27:05.559Z,100697.88
2023-03-29T23:29:34.500Z,100694.00
2023-03-29T23:32:01.226Z,100693.27
2023-03-29T23:34:30.129Z,100689.73
2023-03-29T23:36:58.109Z,100685.86
2023-03-29T23:39:26.510Z,100685.16
2023-03-29T23:41:54.968Z,100686.36
2023-03-29T23:44:23.420Z,100681.32
2023-03-29T23:46:51.911Z,100676.95
2023-03-29T23:49:22.783Z,100674.35
2023-03-29T23:51:52.465Z,100671.95
2023-03-29T23:54:22.508Z,100671.95
2023-03-29T23:56:52.446Z,100671.83
2023-03-29T23:59:26.827Z,100670.09
